Time;durP1;ratioP1;P1;durP2;ratioP2;P2;SDS_P1;SDS_P2;PMS_P1;PMS_P2;Temp;Humidity;BMP_temperature;BMP_pressure;BME280_temperature;BME280_humidity;BME280_pressure;Samples;Min_cycle;Max_cycle;Signal;HPM_P1;HPM_P2
2022/04/03 00:01:20;;;;;;;21.98;12.23;;;0.00;99.90;;;;;;5044513;28;20029;-75
2022/04/03 00:03:46;;;;;;;20.85;12.30;;;0.00;99.90;;;;;;5049861;28;20033;-75
2022/04/03 00:06:11;;;;;;;20.33;11.85;;;0.00;99.90;;;;;;5049335;28;20037;-75
2022/04/03 00:08:37;;;;;;;23.45;12.07;;;-0.10;99.90;;;;;;5043821;28;20035;-74
2022/04/03 00:11:03;;;;;;;19.88;12.02;;;-0.10;99.90;;;;;;5049977;28;20021;-74
2022/04/03 00:13:29;;;;;;;22.50;11.68;;;-0.10;99.90;;;;;;5050451;28;20128;-76
2022/04/03 00:15:56;;;;;;;23.70;12.35;;;-0.10;99.90;;;;;;5049916;28;20021;-76
2022/04/03 00:18:22;;;;;;;21.13;12.30;;;0.00;99.90;;;;;;5048905;28;20036;-76
2022/04/03 00:20:47;;;;;;;20.88;11.82;;;0.00;99.90;;;;;;5050780;28;20121;-77
2022/04/03 00:23:13;;;;;;;19.42;10.95;;;0.00;99.90;;;;;;5050578;28;20104;-74
2022/04/03 00:25:40;;;;;;;19.25;11.25;;;-0.10;99.90;;;;;;5044855;28;20057;-74
2022/04/03 00:28:06;;;;;;;17.40;10.88;;;-0.10;99.90;;;;;;5049218;28;20470;-75
2022/04/03 00:30:33;;;;;;;17.42;10.15;;;-0.10;99.90;;;;;;5046939;28;20095;-75
2022/04/03 00:32:59;;;;;;;19.92;11.00;;;-0.10;99.90;;;;;;5045543;28;20389;-75
2022/04/03 00:35:25;;;;;;;19.50;11.80;;;-0.10;99.90;;;;;;5047876;28;20021;-76
2022/04/03 00:37:51;;;;;;;19.02;10.75;;;-0.10;99.90;;;;;;5043742;28;20056;-75
2022/04/03 00:40:17;;;;;;;22.58;12.32;;;-0.10;99.90;;;;;;5048611;28;20442;-75
2022/04/03 00:42:43;;;;;;;18.70;10.90;;;0.00;99.90;;;;;;5048951;28;20032;-75
2022/04/03 00:45:09;;;;;;;16.85;9.90;;;-0.10;99.90;;;;;;5045026;28;20037;-72
2022/04/03 00:47:35;;;;;;;16.38;10.25;;;-0.10;99.90;;;;;;5049162;28;20025;-73
2022/04/03 00:50:02;;;;;;;22.48;10.88;;;-0.10;99.90;;;;;;5046777;28;20110;-73
2022/04/03 00:52:28;;;;;;;17.42;11.00;;;-0.20;99.90;;;;;;5042425;28;20032;-73
2022/04/03 00:54:54;;;;;;;20.33;11.02;;;-0.10;99.90;;;;;;5049019;28;20026;-73
2022/04/03 00:57:21;;;;;;;24.45;11.93;;;-0.10;99.90;;;;;;5048443;28;20128;-73
2022/04/03 00:59:49;;;;;;;17.65;9.70;;;-0.10;99.90;;;;;;5048790;28;20029;-73
2022/04/03 01:02:15;;;;;;;20.42;11.60;;;-0.10;99.90;;;;;;5040253;28;20575;-73
2022/04/03 01:04:41;;;;;;;21.48;11.95;;;-0.10;99.90;;;;;;5047918;28;20044;-74
2022/04/03 01:07:07;;;;;;;19.83;11.23;;;-0.10;99.90;;;;;;5049139;28;20478;-73
2022/04/03 01:09:33;;;;;;;20.42;10.43;;;-0.10;99.90;;;;;;5042194;28;20037;-73
2022/04/03 01:11:59;;;;;;;20.15;10.52;;;-0.10;99.90;;;;;;5048197;28;20025;-72
2022/04/03 01:14:31;;;;;;;21.48;10.65;;;-0.10;99.90;;;;;;5046810;28;20024;-73
2022/04/03 01:16:57;;;;;;;17.70;10.68;;;-0.10;99.90;;;;;;5044474;28;20045;-74
2022/04/03 01:19:22;;;;;;;18.27;10.70;;;-0.10;99.90;;;;;;5044270;28;20122;-73
2022/04/03 01:21:48;;;;;;;19.85;11.10;;;-0.10;99.90;;;;;;5045601;28;20028;-72
2022/04/03 01:24:21;;;;;;;23.77;10.45;;;-0.10;99.90;;;;;;5043306;28;20021;-72
2022/04/03 01:26:47;;;;;;;20.52;11.18;;;-0.10;99.90;;;;;;5044525;28;20048;-72
2022/04/03 01:29:13;;;;;;;17.83;10.75;;;-0.20;99.90;;;;;;5042685;28;20029;-73
2022/04/03 01:31:39;;;;;;;17.35;10.63;;;-0.10;99.90;;;;;;5044820;28;20045;-73
2022/04/03 01:34:04;;;;;;;20.05;11.13;;;-0.20;99.90;;;;;;5044467;28;20025;-73
2022/04/03 01:36:30;;;;;;;21.70;12.00;;;-0.20;99.90;;;;;;5047398;28;20025;-73
2022/04/03 01:38:56;;;;;;;22.52;11.20;;;-0.10;99.90;;;;;;5046461;28;20105;-73
2022/04/03 01:41:21;;;;;;;22.33;11.52;;;-0.10;99.90;;;;;;5050413;28;20040;-73
2022/04/03 01:43:48;;;;;;;21.80;10.95;;;-0.20;99.90;;;;;;5051001;28;20451;-72
2022/04/03 01:46:13;;;;;;;24.33;11.52;;;-0.20;99.90;;;;;;5045485;28;20108;-73
2022/04/03 01:48:39;;;;;;;24.00;11.70;;;-0.10;99.90;;;;;;5053991;28;20060;-73
2022/04/03 01:51:05;;;;;;;18.70;10.68;;;-0.10;99.90;;;;;;5048307;28;20029;-73
2022/04/03 01:53:31;;;;;;;21.77;11.68;;;-0.10;99.90;;;;;;5046296;28;20043;-70
2022/04/03 01:55:59;;;;;;;20.90;11.55;;;-0.10;99.90;;;;;;5047065;28;20078;-71
2022/04/03 01:58:25;;;;;;;24.10;12.18;;;-0.20;99.90;;;;;;5042953;28;20026;-71
2022/04/03 02:00:50;;;;;;;18.67;10.55;;;-0.20;99.90;;;;;;5041238;28;20051;-71
2022/04/03 02:03:17;;;;;;;19.90;11.15;;;-0.20;99.90;;;;;;5040962;28;20095;-72
2022/04/03 02:05:43;;;;;;;22.70;12.00;;;-0.20;99.90;;;;;;5045058;28;20060;-72
2022/04/03 02:08:09;;;;;;;19.25;11.25;;;-0.20;99.90;;;;;;5044982;28;20028;-72
2022/04/03 02:10:35;;;;;;;22.95;12.00;;;-0.20;99.90;;;;;;5043774;28;20055;-73
2022/04/03 02:13:04;;;;;;;21.10;11.52;;;-0.20;99.90;;;;;;5046152;28;20677;-72
2022/04/03 02:15:30;;;;;;;20.05;10.95;;;-0.20;99.90;;;;;;5044283;28;20426;-72
2022/04/03 02:17:56;;;;;;;20.15;11.75;;;-0.20;99.90;;;;;;5045387;28;20036;-72
2022/04/03 02:20:21;;;;;;;22.23;11.98;;;-0.10;99.90;;;;;;5044081;28;20035;-72
2022/04/03 02:22:47;;;;;;;22.13;11.20;;;-0.10;99.90;;;;;;5039626;28;20113;-73
2022/04/03 02:25:13;;;;;;;22.02;12.10;;;-0.10;99.90;;;;;;5044651;28;20037;-72
2022/04/03 02:27:40;;;;;;;19.55;11.32;;;-0.20;99.90;;;;;;5045027;28;20120;-72
2022/04/03 02:30:10;;;;;;;22.63;12.68;;;-0.20;99.90;;;;;;5047350;28;20089;-72
2022/04/03 02:32:40;;;;;;;21.40;11.88;;;-0.10;99.90;;;;;;5039791;28;20025;-72
2022/04/03 02:35:09;;;;;;;33.35;18.33;;;-0.10;99.90;;;;;;5043069;28;20033;-73
2022/04/03 02:37:36;;;;;;;48.97;28.52;;;-0.10;99.90;;;;;;5041420;28;20131;-72
2022/04/03 02:40:13;;;;;;;50.35;28.20;;;-0.10;99.90;;;;;;5040125;28;20037;-72
2022/04/03 02:42:40;;;;;;;55.40;32.00;;;-0.10;99.90;;;;;;5042499;28;20414;-72
2022/04/03 02:45:07;;;;;;;49.10;27.90;;;-0.10;99.90;;;;;;5051074;28;20151;-72
2022/04/03 02:47:33;;;;;;;47.80;28.02;;;-0.10;99.90;;;;;;5042842;28;20029;-72
2022/04/03 02:49:59;;;;;;;29.63;16.88;;;-0.10;99.90;;;;;;5044120;28;20106;-72
2022/04/03 02:52:25;;;;;;;46.50;22.92;;;-0.10;99.90;;;;;;5046511;28;20112;-72
2022/04/03 02:54:51;;;;;;;40.70;19.50;;;-0.10;99.90;;;;;;5041670;28;20444;-72
2022/04/03 02:57:17;;;;;;;28.20;15.13;;;-0.10;99.90;;;;;;5046874;28;20060;-71
2022/04/03 02:59:44;;;;;;;25.83;14.63;;;-0.10;99.90;;;;;;5045703;28;20029;-71
2022/04/03 03:02:10;;;;;;;21.20;12.13;;;-0.10;99.90;;;;;;5041835;28;20561;-71
2022/04/03 03:04:36;;;;;;;22.50;12.50;;;-0.10;99.90;;;;;;5044950;28;20029;-70
2022/04/03 03:07:06;;;;;;;21.88;12.98;;;-0.10;99.90;;;;;;5042413;28;20090;-73
2022/04/03 03:09:32;;;;;;;27.13;13.02;;;-0.10;99.90;;;;;;5045311;28;20044;-72
2022/04/03 03:11:59;;;;;;;20.85;11.35;;;-0.10;99.90;;;;;;5042234;28;20032;-72
2022/04/03 03:14:26;;;;;;;21.02;12.43;;;-0.10;99.90;;;;;;5038816;28;20875;-72
2022/04/03 03:16:52;;;;;;;29.40;13.48;;;-0.10;99.90;;;;;;5047246;28;20153;-73
2022/04/03 03:19:17;;;;;;;23.65;12.13;;;-0.10;99.90;;;;;;5040760;28;20165;-72
2022/04/03 03:21:43;;;;;;;23.88;11.50;;;-0.10;99.90;;;;;;5041611;28;20108;-72
2022/04/03 03:24:09;;;;;;;18.15;11.27;;;-0.10;99.90;;;;;;5046727;28;20522;-71
2022/04/03 03:26:35;;;;;;;21.48;12.35;;;-0.10;99.90;;;;;;5042837;28;20524;-71
2022/04/03 03:29:01;;;;;;;23.40;12.43;;;-0.10;99.90;;;;;;5042255;28;20074;-72
2022/04/03 03:31:27;;;;;;;21.83;12.02;;;-0.10;99.90;;;;;;5042593;28;20033;-72
2022/04/03 03:33:53;;;;;;;24.55;12.68;;;-0.10;99.90;;;;;;5041262;28;20036;-72
2022/04/03 03:36:19;;;;;;;25.70;13.77;;;-0.10;99.90;;;;;;5047468;28;20033;-71
2022/04/03 03:38:44;;;;;;;23.25;13.00;;;-0.10;99.90;;;;;;5044402;28;20448;-72
2022/04/03 03:41:10;;;;;;;21.52;12.13;;;-0.10;99.90;;;;;;5038650;28;20024;-71
2022/04/03 03:43:36;;;;;;;18.85;11.50;;;-0.10;99.90;;;;;;5042348;28;20057;-71
2022/04/03 03:46:02;;;;;;;22.50;12.90;;;-0.10;99.90;;;;;;5042789;28;20029;-71
2022/04/03 03:48:28;;;;;;;23.75;13.10;;;-0.10;99.90;;;;;;5042986;28;20568;-71
2022/04/03 03:50:55;;;;;;;23.60;12.77;;;-0.10;99.90;;;;;;5044770;28;20147;-72
2022/04/03 03:53:21;;;;;;;22.42;12.38;;;-0.10;99.90;;;;;;5040638;28;20060;-72
2022/04/03 03:55:47;;;;;;;22.50;12.23;;;-0.10;99.90;;;;;;5043667;28;20071;-72
2022/04/03 03:58:13;;;;;;;27.08;14.02;;;-0.10;99.90;;;;;;5044871;28;20033;-73
2022/04/03 04:00:39;;;;;;;24.55;13.55;;;0.00;99.90;;;;;;5045296;28;20089;-73
2022/04/03 04:03:04;;;;;;;22.80;12.52;;;-0.10;99.90;;;;;;5043913;28;20036;-73
2022/04/03 04:05:30;;;;;;;21.70;12.50;;;-0.10;99.90;;;;;;5042484;28;20048;-72
2022/04/03 04:07:56;;;;;;;23.63;13.07;;;-0.10;99.90;;;;;;5043758;28;20021;-71
2022/04/03 04:10:22;;;;;;;22.00;12.77;;;-0.10;99.90;;;;;;5041144;28;21386;-72
2022/04/03 04:12:50;;;;;;;26.30;14.57;;;-0.10;99.90;;;;;;5042428;28;20702;-72
2022/04/03 04:15:16;;;;;;;25.60;13.52;;;-0.10;99.90;;;;;;5045385;28;20021;-72
2022/04/03 04:17:46;;;;;;;26.20;13.38;;;-0.10;99.90;;;;;;5038585;28;20168;-71
2022/04/03 04:20:17;;;;;;;24.55;13.23;;;-0.10;99.90;;;;;;5043941;28;20029;-72
2022/04/03 04:22:45;;;;;;;23.85;14.10;;;-0.10;99.90;;;;;;5041005;28;20031;-71
2022/04/03 04:25:12;;;;;;;24.98;13.60;;;-0.10;99.90;;;;;;5042567;28;20041;-72
2022/04/03 04:27:38;;;;;;;30.40;14.10;;;-0.10;99.90;;;;;;5044852;28;20039;-72
2022/04/03 04:30:04;;;;;;;26.10;14.63;;;-0.10;99.90;;;;;;5041582;28;20498;-72
2022/04/03 04:32:30;;;;;;;28.30;14.18;;;-0.10;99.90;;;;;;5041468;28;20021;-72
2022/04/03 04:34:56;;;;;;;25.25;13.65;;;-0.10;99.90;;;;;;5042362;28;20552;-72
2022/04/03 04:37:24;;;;;;;27.15;14.40;;;-0.10;99.90;;;;;;5043135;28;20041;-71
2022/04/03 04:39:50;;;;;;;26.80;14.68;;;-0.10;99.90;;;;;;5045061;28;20028;-71
2022/04/03 04:42:16;;;;;;;29.25;14.80;;;-0.10;99.90;;;;;;5038719;28;20094;-71
2022/04/03 04:44:42;;;;;;;26.45;14.23;;;-0.10;99.90;;;;;;5043570;28;20033;-70
2022/04/03 04:47:08;;;;;;;27.92;14.73;;;-0.10;99.90;;;;;;5045076;28;20079;-71
2022/04/03 04:49:34;;;;;;;29.10;15.35;;;-0.10;99.90;;;;;;5044407;28;20123;-71
2022/04/03 04:52:00;;;;;;;28.42;14.02;;;-0.10;99.90;;;;;;5047038;28;20146;-71
2022/04/03 04:54:26;;;;;;;29.05;14.32;;;-0.10;99.90;;;;;;5045955;28;20112;-72
2022/04/03 04:56:53;;;;;;;26.42;15.45;;;-0.10;99.90;;;;;;5043067;28;20032;-71
2022/04/03 04:59:19;;;;;;;28.65;15.68;;;-0.10;99.90;;;;;;5046679;28;20024;-72
2022/04/03 05:01:51;;;;;;;25.25;15.13;;;-0.10;99.90;;;;;;5044247;28;20025;-71
2022/04/03 05:04:17;;;;;;;29.20;14.98;;;-0.10;99.90;;;;;;5044797;28;20120;-71
2022/04/03 05:06:44;;;;;;;31.33;16.42;;;-0.10;99.90;;;;;;5048484;28;20120;-72
2022/04/03 05:09:10;;;;;;;27.65;15.00;;;-0.10;99.90;;;;;;5042373;28;20159;-72
2022/04/03 05:11:39;;;;;;;25.42;14.20;;;-0.10;99.90;;;;;;5047693;28;20120;-72
2022/04/03 05:14:06;;;;;;;26.75;13.68;;;-0.10;99.90;;;;;;5044700;28;20068;-73
2022/04/03 05:16:32;;;;;;;28.42;14.68;;;-0.10;99.90;;;;;;5042894;28;20021;-73
2022/04/03 05:18:58;;;;;;;26.00;14.57;;;-0.10;99.90;;;;;;5045429;28;20036;-71
2022/04/03 05:21:24;;;;;;;29.00;15.05;;;-0.10;99.90;;;;;;5044811;28;20029;-72
2022/04/03 05:23:50;;;;;;;25.85;14.63;;;-0.10;99.90;;;;;;5047958;28;20040;-72
2022/04/03 05:26:17;;;;;;;27.92;15.02;;;-0.10;99.90;;;;;;5043370;28;20021;-72
2022/04/03 05:28:43;;;;;;;28.05;15.05;;;-0.10;99.90;;;;;;5047733;28;20098;-71
2022/04/03 05:31:09;;;;;;;29.38;15.90;;;-0.10;99.90;;;;;;5042461;28;20434;-72
2022/04/03 05:33:35;;;;;;;25.52;14.57;;;-0.10;99.90;;;;;;5041979;28;20103;-72
2022/04/03 05:36:00;;;;;;;29.70;14.32;;;-0.10;99.90;;;;;;5044976;28;20056;-71
2022/04/03 05:38:26;;;;;;;31.88;15.68;;;-0.10;99.90;;;;;;5040487;28;20367;-72
2022/04/03 05:40:52;;;;;;;27.67;15.10;;;-0.10;99.90;;;;;;5045819;28;20025;-71
2022/04/03 05:43:17;;;;;;;28.52;14.55;;;-0.10;99.90;;;;;;5046872;28;20071;-72
2022/04/03 05:45:43;;;;;;;30.90;15.43;;;-0.10;99.90;;;;;;5043297;28;20104;-73
2022/04/03 05:48:09;;;;;;;31.77;16.05;;;-0.10;99.90;;;;;;5044764;28;20732;-73
2022/04/03 05:50:37;;;;;;;28.27;14.88;;;-0.10;99.90;;;;;;5047305;28;20391;-72
2022/04/03 05:53:03;;;;;;;29.63;15.25;;;-0.10;99.90;;;;;;5043281;28;20021;-72
2022/04/03 05:55:29;;;;;;;26.10;14.57;;;-0.10;99.90;;;;;;5046282;28;20036;-72
2022/04/03 05:57:55;;;;;;;29.38;15.50;;;-0.10;99.90;;;;;;5041862;28;20456;-72
2022/04/03 06:00:22;;;;;;;28.08;15.45;;;-0.10;99.90;;;;;;5043140;28;20048;-72
2022/04/03 06:02:59;;;;;;;25.85;13.95;;;0.00;99.90;;;;;;5041545;28;21149;-70
2022/04/03 06:05:31;;;;;;;24.40;14.50;;;0.00;99.90;;;;;;5040060;28;20037;-70
2022/04/03 06:07:57;;;;;;;29.63;14.82;;;0.00;99.90;;;;;;5061273;28;20090;-70
2022/04/03 06:10:24;;;;;;;29.55;14.68;;;0.00;99.90;;;;;;5044337;28;20083;-70
2022/04/03 06:13:05;;;;;;;30.73;14.98;;;0.00;99.90;;;;;;5038473;28;20043;-71
2022/04/03 06:15:37;;;;;;;25.40;14.15;;;0.00;99.90;;;;;;5040198;28;20056;-71
2022/04/03 06:18:05;;;;;;;29.10;14.80;;;0.10;99.90;;;;;;5042881;28;20025;-71
2022/04/03 06:20:31;;;;;;;27.27;13.93;;;0.10;99.90;;;;;;5042192;28;20039;-70
2022/04/03 06:22:57;;;;;;;22.98;12.98;;;0.10;99.90;;;;;;5042437;28;20040;-73
2022/04/03 06:25:23;;;;;;;23.95;13.85;;;0.10;99.90;;;;;;5046712;28;20040;-74
2022/04/03 06:27:51;;;;;;;28.95;15.65;;;0.10;99.90;;;;;;5044843;28;20021;-73
2022/04/03 06:30:17;;;;;;;28.38;15.27;;;0.10;99.90;;;;;;5042478;28;20044;-72
2022/04/03 06:32:42;;;;;;;26.90;14.68;;;0.10;99.90;;;;;;5039789;28;20028;-73
2022/04/03 06:35:09;;;;;;;27.77;14.77;;;0.10;99.90;;;;;;5041461;28;20123;-74
2022/04/03 06:37:35;;;;;;;28.45;14.57;;;0.20;99.90;;;;;;5042603;28;20106;-73
2022/04/03 06:40:01;;;;;;;26.05;12.90;;;0.10;99.90;;;;;;5043812;28;20032;-71
2022/04/03 06:42:31;;;;;;;26.63;13.88;;;0.10;99.90;;;;;;5043807;28;20400;-73
2022/04/03 06:44:58;;;;;;;30.33;15.13;;;0.10;99.90;;;;;;5044147;28;20502;-76
2022/04/03 06:47:23;;;;;;;29.38;15.85;;;0.10;99.90;;;;;;5038893;28;20390;-75
2022/04/03 06:49:49;;;;;;;24.88;12.73;;;0.10;99.90;;;;;;5042735;28;20039;-74
2022/04/03 06:52:15;;;;;;;24.92;13.00;;;0.20;99.90;;;;;;5040758;28;20029;-74
2022/04/03 06:54:41;;;;;;;21.33;11.70;;;0.20;99.90;;;;;;5033844;28;20032;-72
2022/04/03 06:57:06;;;;;;;22.20;11.20;;;0.20;99.90;;;;;;5044377;28;20029;-74
2022/04/03 06:59:32;;;;;;;21.05;11.50;;;0.20;99.90;;;;;;5039213;28;20547;-74
2022/04/03 07:01:58;;;;;;;20.63;11.77;;;0.20;99.90;;;;;;5042877;28;20105;-73
2022/04/03 07:04:24;;;;;;;24.52;11.98;;;0.20;99.90;;;;;;5041854;28;20029;-76
2022/04/03 07:06:50;;;;;;;24.17;13.07;;;0.20;99.90;;;;;;5043013;28;20355;-75
2022/04/03 07:09:15;;;;;;;23.55;13.02;;;0.20;99.90;;;;;;5039431;28;20597;-74
2022/04/03 07:11:41;;;;;;;25.38;12.25;;;0.30;99.90;;;;;;5041672;28;20029;-74
2022/04/03 07:14:07;;;;;;;22.17;11.55;;;0.30;99.90;;;;;;5044676;28;20474;-73
2022/04/03 07:16:33;;;;;;;22.10;11.85;;;0.30;99.90;;;;;;5041707;28;20210;-72
2022/04/03 07:18:58;;;;;;;21.70;12.25;;;0.30;99.90;;;;;;5041063;28;20450;-75
2022/04/03 07:21:24;;;;;;;26.20;13.20;;;0.30;99.90;;;;;;5039179;28;20034;-73
2022/04/03 07:23:49;;;;;;;27.00;12.43;;;0.30;99.90;;;;;;5034516;28;20039;-73
2022/04/03 07:26:15;;;;;;;22.58;12.05;;;0.40;99.90;;;;;;5045327;28;20397;-75
2022/04/03 07:28:41;;;;;;;22.83;11.95;;;0.50;99.90;;;;;;5038374;28;20120;-74
2022/04/03 07:31:08;;;;;;;20.90;11.40;;;0.40;99.90;;;;;;5043011;28;20098;-74
2022/04/03 07:33:34;;;;;;;23.42;11.25;;;0.50;99.90;;;;;;5041139;28;20029;-74
2022/04/03 07:36:01;;;;;;;18.73;11.55;;;0.60;99.90;;;;;;5042567;28;20071;-74
2022/04/03 07:38:27;;;;;;;17.40;10.20;;;0.60;99.90;;;;;;5040780;28;20440;-74
2022/04/03 07:40:53;;;;;;;17.95;10.60;;;0.70;99.90;;;;;;5048992;28;20071;-74
2022/04/03 07:43:18;;;;;;;16.90;9.98;;;0.70;99.90;;;;;;5042064;28;20128;-74
2022/04/03 07:45:45;;;;;;;18.20;10.32;;;0.80;99.90;;;;;;5043108;28;20051;-73
2022/04/03 07:48:11;;;;;;;20.33;10.95;;;0.90;99.90;;;;;;5042264;28;20481;-74
2022/04/03 07:50:37;;;;;;;17.95;9.77;;;0.80;99.90;;;;;;5042689;28;20048;-72
2022/04/03 07:53:04;;;;;;;18.40;9.95;;;0.70;99.90;;;;;;5043762;28;20029;-74
2022/04/03 07:55:30;;;;;;;15.38;9.02;;;0.70;99.90;;;;;;5042135;28;20873;-74
2022/04/03 07:57:56;;;;;;;17.23;10.07;;;0.80;99.90;;;;;;5045621;28;20025;-74
2022/04/03 08:00:22;;;;;;;18.13;9.85;;;0.80;99.90;;;;;;5043290;28;20032;-74
2022/04/03 08:02:48;;;;;;;18.00;10.10;;;0.90;99.90;;;;;;5042706;28;20033;-75
2022/04/03 08:05:14;;;;;;;17.27;9.80;;;0.90;99.90;;;;;;5038758;28;20398;-74
2022/04/03 08:07:43;;;;;;;17.02;10.20;;;0.90;99.90;;;;;;5043085;28;20076;-75
2022/04/03 08:10:12;;;;;;;15.50;9.50;;;1.00;99.90;;;;;;5040958;28;20036;-74
2022/04/03 08:12:40;;;;;;;16.08;9.45;;;1.00;99.90;;;;;;5040813;28;20493;-74
2022/04/03 08:15:07;;;;;;;15.10;10.00;;;1.10;99.90;;;;;;5040172;28;20017;-74
2022/04/03 08:17:34;;;;;;;14.90;9.13;;;1.30;99.90;;;;;;5036016;28;20497;-75
2022/04/03 08:20:00;;;;;;;17.20;10.05;;;1.40;99.90;;;;;;5043390;28;20036;-74
2022/04/03 08:22:26;;;;;;;17.50;9.23;;;1.50;99.90;;;;;;5047583;28;20129;-74
2022/04/03 08:24:52;;;;;;;13.45;8.13;;;1.60;99.90;;;;;;5042359;28;20120;-74
2022/04/03 08:27:18;;;;;;;14.93;9.05;;;1.50;99.90;;;;;;5045823;28;20161;-73
2022/04/03 08:29:44;;;;;;;16.42;8.85;;;1.60;99.90;;;;;;5045276;28;20041;-75
2022/04/03 08:32:10;;;;;;;11.90;7.82;;;1.40;99.90;;;;;;5048197;28;20032;-74
2022/04/03 08:34:36;;;;;;;14.43;8.90;;;1.40;99.90;;;;;;5047326;28;20074;-73
2022/04/03 08:37:02;;;;;;;16.73;8.60;;;1.50;99.90;;;;;;5047865;28;20041;-73
2022/04/03 08:39:28;;;;;;;14.65;8.60;;;1.40;99.90;;;;;;5047290;28;20568;-74
2022/04/03 08:41:54;;;;;;;14.68;8.45;;;1.50;99.90;;;;;;5048619;28;20320;-74
2022/04/03 08:44:20;;;;;;;13.65;7.90;;;1.40;99.90;;;;;;5041217;28;20025;-72
2022/04/03 08:46:48;;;;;;;11.48;7.57;;;1.30;99.90;;;;;;5049152;28;20584;-73
2022/04/03 08:49:15;;;;;;;15.60;7.63;;;1.30;99.90;;;;;;5047098;28;20028;-74
2022/04/03 08:51:42;;;;;;;12.52;7.10;;;1.20;99.90;;;;;;5046035;28;20028;-73
2022/04/03 08:54:09;;;;;;;12.80;7.45;;;1.10;99.90;;;;;;5047334;28;20028;-74
2022/04/03 08:56:35;;;;;;;10.35;6.28;;;1.30;99.90;;;;;;5042754;28;20494;-74
2022/04/03 08:59:00;;;;;;;13.18;6.72;;;1.50;99.90;;;;;;5040191;28;20530;-74
2022/04/03 09:01:26;;;;;;;9.80;6.07;;;1.70;99.90;;;;;;5042547;28;20167;-73
2022/04/03 09:03:52;;;;;;;12.30;7.55;;;1.80;99.90;;;;;;5045541;28;20036;-75
2022/04/03 09:06:19;;;;;;;12.38;6.82;;;1.90;99.90;;;;;;5049148;28;20021;-74
2022/04/03 09:08:46;;;;;;;11.18;6.32;;;2.10;99.90;;;;;;5042846;28;20370;-74
2022/04/03 09:11:12;;;;;;;9.70;5.65;;;2.20;99.90;;;;;;5044524;28;20056;-75
2022/04/03 09:13:39;;;;;;;12.02;5.22;;;2.20;99.90;;;;;;5040910;28;20017;-73
2022/04/03 09:16:06;;;;;;;8.95;4.55;;;2.40;99.90;;;;;;5044554;28;20068;-73
2022/04/03 09:19:01;;;;;;;10.80;6.10;;;2.60;99.90;;;;;;5041243;28;20031;-74
2022/04/03 09:21:28;;;;;;;11.85;7.10;;;2.60;99.90;;;;;;5038602;28;20044;-75
2022/04/03 09:24:12;;;;;;;8.95;5.57;;;2.90;99.90;;;;;;5043361;28;20048;-76
2022/04/03 09:26:42;;;;;;;10.77;6.30;;;3.00;99.90;;;;;;5033538;28;20029;-76
2022/04/03 09:29:15;;;;;;;10.23;6.82;;;3.00;99.90;;;;;;5041116;28;20036;-76
2022/04/03 09:31:45;;;;;;;14.80;7.38;;;3.20;99.90;;;;;;5045526;28;20025;-76
2022/04/03 09:34:20;;;;;;;9.15;5.68;;;3.10;99.90;;;;;;5041431;28;20132;-77
2022/04/03 09:36:57;;;;;;;12.48;6.28;;;3.00;99.90;;;;;;5043410;28;20029;-76
2022/04/03 09:39:27;;;;;;;11.35;6.10;;;2.70;99.90;;;;;;5045650;28;20503;-77
2022/04/03 09:42:06;;;;;;;11.93;6.50;;;2.60;99.90;;;;;;5040163;28;20029;-75
2022/04/03 09:44:37;;;;;;;13.02;6.55;;;2.50;99.90;;;;;;5044270;28;20028;-77
2022/04/03 09:47:22;;;;;;;12.65;7.55;;;2.50;99.90;;;;;;5046853;28;20028;-77
2022/04/03 09:49:57;;;;;;;17.27;7.55;;;2.50;99.90;;;;;;5047078;28;20099;-73
2022/04/03 09:52:44;;;;;;;13.25;7.07;;;2.40;99.90;;;;;;5044306;28;20025;-74
2022/04/03 09:55:13;;;;;;;13.60;8.50;;;2.30;99.90;;;;;;5048231;28;20853;-73
2022/04/03 09:57:39;;;;;;;16.67;7.50;;;2.30;99.90;;;;;;5044381;28;20107;-76
2022/04/03 10:00:06;;;;;;;16.08;6.60;;;2.30;99.90;;;;;;5042271;28;20132;-76
2022/04/03 10:02:32;;;;;;;12.05;7.18;;;2.10;99.90;;;;;;5047217;28;20074;-74
2022/04/03 10:05:01;;;;;;;13.88;7.15;;;2.10;99.90;;;;;;5046854;28;20524;-75
2022/04/03 10:07:30;;;;;;;14.70;6.70;;;2.20;99.90;;;;;;5041548;28;20052;-77
2022/04/03 10:09:56;;;;;;;12.73;6.88;;;2.10;99.90;;;;;;5047537;28;20029;-76
2022/04/03 10:12:23;;;;;;;10.38;6.85;;;2.20;99.90;;;;;;5048870;28;20037;-77
2022/04/03 10:14:52;;;;;;;15.95;7.32;;;2.30;99.90;;;;;;5048786;28;20027;-76
2022/04/03 10:17:20;;;;;;;12.27;6.40;;;2.40;99.90;;;;;;5046328;28;20087;-74
2022/04/03 10:19:46;;;;;;;21.55;10.38;;;2.50;99.90;;;;;;5045149;28;20323;-74
2022/04/03 10:22:31;;;;;;;11.25;7.00;;;2.70;99.90;;;;;;5040888;28;20034;-75
2022/04/03 10:25:04;;;;;;;11.35;7.20;;;2.70;99.90;;;;;;5113840;22;20098;-81
2022/04/03 10:27:34;;;;;;;12.25;6.35;;;3.00;99.90;;;;;;5045239;28;20441;-81
2022/04/03 10:30:00;;;;;;;13.38;6.07;;;3.10;99.90;;;;;;5046095;28;20473;-81
2022/04/03 10:32:28;;;;;;;9.40;6.55;;;3.10;99.90;;;;;;5044608;28;20049;-81
2022/04/03 10:34:59;;;;;;;10.43;6.53;;;3.10;99.90;;;;;;5043431;28;20103;-81
2022/04/03 10:37:31;;;;;;;9.10;5.68;;;3.20;99.90;;;;;;5043348;28;20091;-81
2022/04/03 10:40:05;;;;;;;9.90;6.30;;;3.10;99.90;;;;;;5044576;28;20481;-81
2022/04/03 10:42:31;;;;;;;11.23;6.43;;;3.20;99.90;;;;;;5038880;28;20032;-81
2022/04/03 10:45:30;;;;;;;10.57;6.97;;;3.20;99.90;;;;;;5040555;28;20034;-81
2022/04/03 10:48:20;;;;;;;9.25;6.15;;;3.10;99.90;;;;;;5046775;28;20132;-81
2022/04/03 10:51:26;;;;;;;9.48;5.75;;;3.10;99.90;;;;;;5042471;28;20068;-81
2022/04/03 10:54:00;;;;;;;9.70;5.65;;;3.10;99.90;;;;;;5059633;28;20438;-81
2022/04/03 10:56:28;;;;;;;9.27;5.40;;;3.10;99.90;;;;;;5044042;28;20064;-81
2022/04/03 10:58:56;;;;;;;12.00;5.97;;;3.10;99.90;;;;;;5046438;28;20115;-81
2022/04/03 11:01:33;;;;;;;8.80;4.60;;;3.10;99.90;;;;;;5044782;28;20083;-81
2022/04/03 11:04:09;;;;;;;11.45;4.63;;;2.90;99.90;;;;;;5045179;28;20119;-81
2022/04/03 11:06:37;;;;;;;6.43;3.60;;;2.80;99.90;;;;;;5043022;28;20029;-81
2022/04/03 11:09:25;;;;;;;7.05;4.00;;;2.70;99.90;;;;;;5043945;28;20111;-81
2022/04/03 11:11:58;;;;;;;6.38;3.72;;;2.60;99.90;;;;;;5039965;28;20025;-81
2022/04/03 11:14:52;;;;;;;5.93;4.10;;;2.50;99.90;;;;;;5047284;28;20052;-81
2022/04/03 11:17:48;;;;;;;8.27;3.78;;;2.50;99.90;;;;;;5045246;28;20040;-81
2022/04/03 11:20:30;;;;;;;5.63;3.90;;;2.40;99.90;;;;;;5042400;28;20052;-82
2022/04/03 11:22:58;;;;;;;8.50;4.20;;;2.50;99.90;;;;;;5043425;28;20077;-81
2022/04/03 11:25:23;;;;;;;5.50;3.40;;;2.40;99.90;;;;;;5044942;28;20459;-81
2022/04/03 11:27:50;;;;;;;9.13;4.70;;;2.30;99.90;;;;;;5048306;28;20104;-81
2022/04/03 11:30:17;;;;;;;6.72;4.30;;;2.40;99.90;;;;;;5039715;28;20022;-81
2022/04/03 11:32:44;;;;;;;8.88;4.85;;;2.30;99.90;;;;;;5044590;28;21199;-82
2022/04/03 11:35:11;;;;;;;6.97;4.32;;;2.20;99.90;;;;;;5043608;28;20108;-82
2022/04/03 11:37:42;;;;;;;7.85;4.75;;;2.20;99.90;;;;;;5047475;28;20337;-81
2022/04/03 11:40:09;;;;;;;7.22;4.03;;;2.10;99.90;;;;;;5044689;28;20216;-81
2022/04/03 11:42:34;;;;;;;8.07;4.28;;;2.10;99.90;;;;;;5043997;28;20040;-81
2022/04/03 11:45:06;;;;;;;12.13;5.35;;;2.20;99.90;;;;;;5047211;28;20021;-81
2022/04/03 11:47:32;;;;;;;7.10;4.45;;;2.10;99.90;;;;;;5043713;28;20480;-81
2022/04/03 11:50:11;;;;;;;10.45;6.28;;;2.10;99.90;;;;;;5041371;28;20028;-81
2022/04/03 11:52:38;;;;;;;7.80;3.97;;;2.10;99.90;;;;;;5047428;28;20048;-81
2022/04/03 11:55:09;;;;;;;11.05;5.65;;;2.20;99.90;;;;;;5046845;28;20067;-81
2022/04/03 11:57:35;;;;;;;9.05;5.25;;;2.20;99.90;;;;;;5049993;28;20022;-81
2022/04/03 12:00:01;;;;;;;8.65;4.93;;;2.10;99.90;;;;;;5047384;28;20029;-81
2022/04/03 12:02:27;;;;;;;8.70;4.90;;;2.10;99.90;;;;;;5043403;28;20060;-81
2022/04/03 12:04:56;;;;;;;8.07;5.03;;;2.10;99.90;;;;;;5054757;28;20017;-81
2022/04/03 12:07:22;;;;;;;7.88;4.95;;;2.20;99.90;;;;;;5051194;28;20025;-81
2022/04/03 12:09:48;;;;;;;10.23;5.50;;;2.10;99.90;;;;;;5050936;28;20032;-81
2022/04/03 12:12:21;;;;;;;10.77;5.75;;;2.40;99.90;;;;;;5046804;28;20029;-81
2022/04/03 12:14:47;;;;;;;9.63;5.95;;;2.60;99.90;;;;;;5049285;28;20167;-81
2022/04/03 12:17:15;;;;;;;10.85;5.53;;;2.60;99.90;;;;;;5049473;28;20511;-81
2022/04/03 12:19:47;;;;;;;10.90;4.38;;;2.60;99.90;;;;;;5051316;28;20025;-81
2022/04/03 12:22:18;;;;;;;8.38;5.07;;;2.60;99.90;;;;;;5044377;28;20025;-81
2022/04/03 12:24:45;;;;;;;9.32;5.75;;;2.70;99.90;;;;;;5049784;28;20397;-82
2022/04/03 12:27:14;;;;;;;14.02;8.43;;;2.60;99.90;;;;;;5043846;28;20029;-81
2022/04/03 12:29:51;;;;;;;11.88;5.60;;;2.60;99.90;;;;;;5045590;28;20036;-81
2022/04/03 12:32:36;;;;;;;7.22;4.43;;;2.70;99.90;;;;;;5043619;28;20033;-81
2022/04/03 12:35:08;;;;;;;7.30;4.70;;;2.70;99.90;;;;;;5043277;28;20047;-81
2022/04/03 12:37:40;;;;;;;6.80;4.32;;;2.70;99.90;;;;;;5044294;28;20428;-81
2022/04/03 12:40:12;;;;;;;9.55;5.15;;;2.80;99.90;;;;;;5042760;28;20025;-81
2022/04/03 12:42:40;;;;;;;8.32;5.22;;;2.90;99.90;;;;;;5042795;28;20115;-81